createdAt,value
2023-03-16T00:02:11.834Z,101601.00
2023-03-16T00:04:40.339Z,101603.00
2023-03-16T00:07:10.858Z,101608.00
2023-03-16T00:09:41.425Z,101612.00
2023-03-16T00:12:18.868Z,101603.00
2023-03-16T00:14:48.975Z,101608.00
2023-03-16T00:17:19.693Z,101613.00
2023-03-16T00:19:55.740Z,101616.00
2023-03-16T00:22:25.769Z,101612.00
2023-03-16T00:24:53.213Z,101616.00
2023-03-16T00:27:22.654Z,101603.00
2023-03-16T00:29:55.826Z,101603.00
2023-03-16T00:32:30.218Z,101615.00
2023-03-16T00:34:58.182Z,101616.00
2023-03-16T00:37:28.238Z,101627.00
2023-03-16T00:39:56.424Z,101618.00
2023-03-16T00:42:29.783Z,101620.00
2023-03-16T00:44:58.300Z,101613.00
2023-03-16T00:47:31.479Z,101620.00
2023-03-16T00:49:59.553Z,101632.00
2023-03-16T00:52:27.760Z,101627.00
2023-03-16T00:54:56.099Z,101626.00
2023-03-16T00:57:25.840Z,101624.00
2023-03-16T00:59:52.909Z,101624.00
2023-03-16T01:02:23.545Z,101633.00
2023-03-16T01:04:51.798Z,101633.00
2023-03-16T01:07:19.601Z,101632.00
2023-03-16T01:09:46.442Z,101636.00
2023-03-16T01:12:18.130Z,101632.00
2023-03-16T01:14:46.005Z,101632.00
2023-03-16T01:17:14.852Z,101632.00
2023-03-16T01:19:42.118Z,101636.00
2023-03-16T01:22:11.748Z,101628.00
2023-03-16T01:24:40.077Z,101634.00
2023-03-16T01:27:08.355Z,101635.00
2023-03-16T01:29:35.917Z,101629.00
2023-03-16T01:32:04.237Z,101633.00
2023-03-16T01:34:32.128Z,101619.00
2023-03-16T01:36:59.506Z,101631.00
2023-03-16T01:39:28.514Z,101620.00
2023-03-16T01:41:55.425Z,101628.00
2023-03-16T01:44:30.558Z,101634.00
2023-03-16T01:46:57.776Z,101632.00
2023-03-16T01:49:28.874Z,101631.00
2023-03-16T01:52:10.029Z,101635.00
2023-03-16T01:54:46.253Z,101635.00
2023-03-16T01:57:19.318Z,101637.00
2023-03-16T02:00:19.617Z,101626.00
2023-03-16T02:02:52.894Z,101630.00
2023-03-16T02:05:37.491Z,101636.00
2023-03-16T02:08:05.706Z,101627.00
2023-03-16T02:10:33.891Z,101624.00
2023-03-16T02:13:01.625Z,101629.00
2023-03-16T02:15:28.605Z,101622.00
2023-03-16T02:18:00.651Z,101625.00
2023-03-16T02:20:46.900Z,101620.00
2023-03-16T02:23:19.002Z,101625.00
2023-03-16T02:26:01.833Z,101619.00
2023-03-16T02:28:45.119Z,101623.00
2023-03-16T02:31:12.392Z,101622.00
2023-03-16T02:33:40.722Z,101621.00
2023-03-16T02:36:07.978Z,101628.00
2023-03-16T02:38:34.991Z,101619.00
2023-03-16T02:41:15.997Z,101630.00
2023-03-16T02:43:53.126Z,101627.00
2023-03-16T02:46:28.029Z,101630.00
2023-03-16T02:49:27.803Z,101626.00
2023-03-16T02:51:54.847Z,101633.00
2023-03-16T02:54:21.645Z,101624.00
2023-03-16T02:56:48.445Z,101624.00
2023-03-16T02:59:15.406Z,101629.00
2023-03-16T03:01:42.286Z,101623.00
2023-03-16T03:04:09.403Z,101623.00
2023-03-16T03:06:36.425Z,101635.00
2023-03-16T03:09:04.325Z,101643.00
2023-03-16T03:11:31.461Z,101646.00
2023-03-16T03:13:58.437Z,101642.00
2023-03-16T03:16:25.571Z,101640.00
2023-03-16T03:18:55.580Z,101647.00
2023-03-16T03:21:23.975Z,101653.00
2023-03-16T03:23:50.905Z,101663.00
2023-03-16T03:26:18.421Z,101656.00
2023-03-16T03:28:45.857Z,101657.00
2023-03-16T03:31:21.575Z,101664.00
2023-03-16T03:33:49.143Z,101659.00
2023-03-16T03:36:16.868Z,101657.00
2023-03-16T03:38:44.353Z,101665.00
2023-03-16T03:41:11.233Z,101657.00
2023-03-16T03:43:38.019Z,101659.00
2023-03-16T03:46:05.721Z,101663.00
2023-03-16T03:48:33.669Z,101649.00
2023-03-16T03:51:01.072Z,101667.00
2023-03-16T03:53:27.880Z,101655.00
2023-03-16T03:55:54.617Z,101665.00
2023-03-16T03:58:21.388Z,101658.00
2023-03-16T04:00:48.153Z,101659.00
2023-03-16T04:03:15.093Z,101651.00
2023-03-16T04:05:42.164Z,101661.00
2023-03-16T04:08:08.970Z,101658.00
2023-03-16T04:10:36.000Z,101660.00
2023-03-16T04:13:02.768Z,101666.00
2023-03-16T04:15:32.928Z,101660.00
2023-03-16T04:18:00.022Z,101661.00
2023-03-16T04:20:27.098Z,101658.00
2023-03-16T04:22:58.653Z,101660.00
2023-03-16T04:25:27.285Z,101652.00
2023-03-16T04:27:54.458Z,101659.00
2023-03-16T04:30:23.421Z,101660.00
2023-03-16T04:32:50.989Z,101659.00
2023-03-16T04:35:18.482Z,101669.00
2023-03-16T04:37:45.249Z,101663.00
2023-03-16T04:40:15.689Z,101659.00
2023-03-16T04:42:44.071Z,101665.00
2023-03-16T04:45:12.231Z,101671.00
2023-03-16T04:47:39.262Z,101667.00
2023-03-16T04:50:07.934Z,101665.00
2023-03-16T04:52:35.690Z,101659.00
2023-03-16T04:55:02.582Z,101670.00
2023-03-16T04:57:30.436Z,101670.00
2023-03-16T04:59:57.337Z,101659.00
2023-03-16T05:02:24.499Z,101667.00
2023-03-16T05:04:51.316Z,101674.00
2023-03-16T05:07:18.372Z,101688.00
2023-03-16T05:09:45.120Z,101681.00
2023-03-16T05:12:11.961Z,101683.00
2023-03-16T05:14:38.914Z,101684.00
2023-03-16T05:17:05.894Z,101685.00
2023-03-16T05:19:32.645Z,101676.00
2023-03-16T05:21:59.483Z,101678.00
2023-03-16T05:24:26.676Z,101680.00
2023-03-16T05:26:53.528Z,101686.00
2023-03-16T05:29:20.322Z,101682.00
2023-03-16T05:31:47.748Z,101682.00
2023-03-16T05:34:15.297Z,101692.00
2023-03-16T05:36:42.360Z,101691.00
2023-03-16T05:39:09.197Z,101698.00
2023-03-16T05:41:36.043Z,101685.00
2023-03-16T05:44:04.460Z,101694.00
2023-03-16T05:46:31.467Z,101688.00
2023-03-16T05:48:58.206Z,101691.00
2023-03-16T05:51:29.120Z,101697.00
2023-03-16T05:53:59.019Z,101701.00
2023-03-16T05:56:28.239Z,101703.00
2023-03-16T05:58:57.260Z,101717.00
2023-03-16T06:01:24.649Z,101709.00
2023-03-16T06:03:52.443Z,101717.00
2023-03-16T06:06:22.558Z,101717.00
2023-03-16T06:08:49.564Z,101706.00
2023-03-16T06:11:17.677Z,101712.00
2023-03-16T06:13:44.436Z,101720.00
2023-03-16T06:16:14.174Z,101707.00
2023-03-16T06:18:41.280Z,101713.00
2023-03-16T06:21:08.227Z,101713.00
2023-03-16T06:23:35.225Z,101721.00
2023-03-16T06:26:01.979Z,101723.00
2023-03-16T06:28:28.804Z,101732.00
2023-03-16T06:30:57.535Z,101722.00
2023-03-16T06:33:25.253Z,101728.00
2023-03-16T06:35:52.200Z,101735.00
2023-03-16T06:38:19.799Z,101738.00
2023-03-16T06:40:51.636Z,101734.00
2023-03-16T06:43:18.433Z,101739.00
2023-03-16T06:45:45.286Z,101740.00
2023-03-16T06:48:12.219Z,101741.00
2023-03-16T06:50:38.963Z,101742.00
2023-03-16T06:53:06.563Z,101752.00
2023-03-16T06:55:33.396Z,101757.00
2023-03-16T06:58:00.190Z,101753.00
2023-03-16T07:00:27.280Z,101752.00
2023-03-16T07:02:54.963Z,101754.00
2023-03-16T07:05:21.722Z,101762.00
2023-03-16T07:07:48.593Z,101763.00
2023-03-16T07:10:17.934Z,101764.00
2023-03-16T07:12:45.366Z,101764.00
2023-03-16T07:15:13.287Z,101772.00
2023-03-16T07:17:41.196Z,101776.00
2023-03-16T07:20:10.544Z,101773.00
2023-03-16T07:22:39.503Z,101775.00
2023-03-16T07:25:07.603Z,101775.00
2023-03-16T07:27:34.465Z,101780.00
2023-03-16T07:30:01.200Z,101786.00
2023-03-16T07:32:28.059Z,101794.00
2023-03-16T07:34:54.850Z,101791.00
2023-03-16T07:37:25.501Z,101787.00
2023-03-16T07:39:52.671Z,101793.00
2023-03-16T07:42:19.910Z,101800.00
2023-03-16T07:44:47.112Z,101799.00
2023-03-16T07:47:14.190Z,101806.00
2023-03-16T07:49:41.757Z,101794.00
2023-03-16T07:52:08.942Z,101792.00
2023-03-16T07:54:36.030Z,101785.00
2023-03-16T07:57:02.862Z,101783.00
2023-03-16T07:59:29.665Z,101796.00
2023-03-16T08:01:56.453Z,101791.00
2023-03-16T08:04:23.388Z,101808.00
2023-03-16T08:06:52.408Z,101808.00
2023-03-16T08:09:19.423Z,101808.00
2023-03-16T08:11:46.175Z,101806.00
2023-03-16T08:14:13.246Z,101811.00
2023-03-16T08:16:40.081Z,101809.00
2023-03-16T08:19:07.089Z,101796.00
2023-03-16T08:21:35.124Z,101802.00
2023-03-16T08:24:05.074Z,101797.00
2023-03-16T08:26:31.807Z,101796.00
2023-03-16T08:29:02.530Z,101799.00
2023-03-16T08:31:30.362Z,101797.00
2023-03-16T08:33:57.838Z,101805.00
2023-03-16T08:36:24.569Z,101809.00
2023-03-16T08:39:05.980Z,101805.00
2023-03-16T08:41:34.711Z,101814.00
2023-03-16T08:44:03.142Z,101804.00
2023-03-16T08:46:30.873Z,101806.00
2023-03-16T08:48:57.710Z,101819.00
2023-03-16T08:51:24.942Z,101819.00
2023-03-16T08:53:52.809Z,101822.00
2023-03-16T08:56:19.603Z,101828.00
2023-03-16T08:58:46.481Z,101827.00
2023-03-16T09:01:17.548Z,101833.00
2023-03-16T09:03:46.265Z,101826.00
2023-03-16T09:06:17.048Z,101832.00
2023-03-16T09:08:45.999Z,101831.00
2023-03-16T09:11:17.736Z,101838.00
2023-03-16T09:13:47.024Z,101840.00
2023-03-16T09:16:15.753Z,101824.00
2023-03-16T09:18:43.445Z,101837.00
2023-03-16T09:21:13.785Z,101839.00
2023-03-16T09:23:42.678Z,101832.00
2023-03-16T09:26:12.549Z,101838.00
2023-03-16T09:28:42.212Z,101847.00
2023-03-16T09:31:16.760Z,101846.00
2023-03-16T09:33:44.016Z,101836.00
2023-03-16T09:36:11.899Z,101843.00
2023-03-16T09:38:39.317Z,101840.00
2023-03-16T09:41:34.362Z,101848.00
2023-03-16T09:44:29.249Z,101836.00
2023-03-16T09:47:01.573Z,101835.00
2023-03-16T09:49:47.724Z,101840.00
2023-03-16T09:52:33.614Z,101834.00
2023-03-16T09:55:17.897Z,101842.00
2023-03-16T09:57:46.434Z,101852.00
2023-03-16T10:01:07.634Z,101870.00
2023-03-16T10:04:09.984Z,101855.00
2023-03-16T10:07:09.830Z,101858.00
2023-03-16T10:09:45.967Z,101854.00
2023-03-16T10:12:16.271Z,101845.00
2023-03-16T10:15:09.276Z,101848.00
2023-03-16T10:17:50.068Z,101845.00
2023-03-16T10:20:24.371Z,101847.00
2023-03-16T10:22:52.996Z,101844.00
2023-03-16T10:25:35.621Z,101847.00
2023-03-16T10:28:02.427Z,101847.00
2023-03-16T10:30:36.230Z,101846.00
2023-03-16T10:33:29.986Z,101841.00
2023-03-16T10:36:19.478Z,101844.00
2023-03-16T10:38:58.828Z,101846.00
2023-03-16T10:41:35.508Z,101832.00
2023-03-16T10:44:16.869Z,101833.00
2023-03-16T10:46:54.096Z,101834.00
2023-03-16T10:49:27.545Z,101831.00
2023-03-16T10:51:59.529Z,101829.00
2023-03-16T10:54:39.928Z,101824.00
2023-03-16T10:57:41.468Z,101820.00
2023-03-16T11:00:12.846Z,101833.00
2023-03-16T11:02:40.637Z,101830.00
2023-03-16T11:05:19.442Z,101829.00
2023-03-16T11:08:02.602Z,101823.00
2023-03-16T11:10:46.029Z,101820.00
2023-03-16T11:13:21.299Z,101826.00
2023-03-16T11:15:58.958Z,101824.00
2023-03-16T11:18:42.597Z,101816.00
2023-03-16T11:21:17.330Z,101809.00
2023-03-16T11:23:56.407Z,101815.00
2023-03-16T11:26:33.609Z,101809.00
2023-03-16T11:29:48.719Z,101799.00
2023-03-16T11:32:26.186Z,101810.00
2023-03-16T11:34:54.013Z,101801.00
2023-03-16T11:37:46.185Z,101815.00
2023-03-16T11:40:38.441Z,101809.00
2023-03-16T11:43:52.778Z,101806.00
2023-03-16T11:46:40.861Z,101798.00
2023-03-16T11:49:35.439Z,101796.00
2023-03-16T11:52:17.218Z,101792.00
2023-03-16T11:55:10.532Z,101791.00
2023-03-16T11:58:00.654Z,101780.00
2023-03-16T12:01:07.449Z,101777.00
2023-03-16T12:04:16.206Z,101778.00
2023-03-16T12:07:06.597Z,101773.00
2023-03-16T12:10:06.871Z,101763.00
2023-03-16T12:13:04.869Z,101766.00
2023-03-16T12:15:50.003Z,101767.00
2023-03-16T12:18:31.275Z,101773.00
2023-03-16T12:21:07.186Z,101755.00
2023-03-16T12:23:43.280Z,101753.00
2023-03-16T12:26:12.450Z,101757.00
2023-03-16T12:28:42.201Z,101758.00
2023-03-16T12:31:41.834Z,101762.00
2023-03-16T12:34:49.209Z,101745.00
2023-03-16T12:37:34.849Z,101746.00
2023-03-16T12:40:15.677Z,101749.00
2023-03-16T12:43:14.605Z,101741.00
2023-03-16T12:46:11.730Z,101738.00
2023-03-16T12:48:47.582Z,101732.00
2023-03-16T12:51:14.553Z,101729.00
2023-03-16T12:53:55.741Z,101731.00
2023-03-16T12:56:31.338Z,101724.00
2023-03-16T12:59:03.728Z,101726.00
2023-03-16T13:01:41.460Z,101720.00
2023-03-16T13:04:15.772Z,101724.00
2023-03-16T13:06:48.371Z,101717.00
2023-03-16T13:09:27.398Z,101713.00
2023-03-16T13:11:54.401Z,101705.00
2023-03-16T13:14:43.926Z,101711.00
2023-03-16T13:17:16.903Z,101707.00
2023-03-16T13:20:18.225Z,101704.00
2023-03-16T13:23:18.429Z,101701.00
2023-03-16T13:26:15.728Z,101705.00
2023-03-16T13:28:50.346Z,101709.00
2023-03-16T13:31:35.983Z,101700.00
2023-03-16T13:34:05.689Z,101711.00
2023-03-16T13:36:34.957Z,101710.00
2023-03-16T13:39:18.865Z,101713.00
2023-03-16T13:42:03.887Z,101704.00
2023-03-16T13:44:32.184Z,101703.00
2023-03-16T13:47:07.364Z,101700.00
2023-03-16T13:49:47.356Z,101708.00
2023-03-16T13:52:25.536Z,101702.00
2023-03-16T13:54:53.777Z,101694.00
2023-03-16T13:57:25.589Z,101693.00
2023-03-16T14:00:01.037Z,101682.00
2023-03-16T14:02:27.848Z,101686.00
2023-03-16T14:04:54.919Z,101677.00
2023-03-16T14:07:23.839Z,101674.00
2023-03-16T14:09:52.432Z,101670.00
2023-03-16T14:12:20.053Z,101666.00
2023-03-16T14:14:54.734Z,101668.00
2023-03-16T14:17:24.038Z,101666.00
2023-03-16T14:20:00.197Z,101674.00
2023-03-16T14:22:37.694Z,101669.00
2023-03-16T14:25:07.694Z,101664.00
2023-03-16T14:27:43.888Z,101671.00
2023-03-16T14:30:25.854Z,101672.00
2023-03-16T14:33:02.531Z,101665.00
2023-03-16T14:35:43.020Z,101651.00
2023-03-16T14:38:33.546Z,101660.00
2023-03-16T14:41:12.271Z,101659.00
2023-03-16T14:43:47.075Z,101641.00
2023-03-16T14:46:31.306Z,101632.00
2023-03-16T14:49:29.731Z,101634.00
2023-03-16T14:52:04.703Z,101623.00
2023-03-16T14:54:31.473Z,101624.00
2023-03-16T14:57:05.668Z,101624.00
2023-03-16T14:59:33.425Z,101627.00
2023-03-16T15:02:03.344Z,101620.00
2023-03-16T15:04:37.204Z,101626.00
2023-03-16T15:07:34.524Z,101625.00
2023-03-16T15:10:15.419Z,101624.00
2023-03-16T15:12:50.648Z,101618.00
2023-03-16T15:15:20.388Z,101603.00
2023-03-16T15:17:48.176Z,101601.00
2023-03-16T15:20:20.205Z,101603.00
2023-03-16T15:22:51.038Z,101607.00
2023-03-16T15:25:23.887Z,101602.00
2023-03-16T15:27:52.849Z,101599.00
2023-03-16T15:30:30.603Z,101594.00
2023-03-16T15:32:58.170Z,101609.00
2023-03-16T15:35:25.070Z,101597.00
2023-03-16T15:37:52.367Z,101601.00
2023-03-16T15:40:28.934Z,101592.00
2023-03-16T15:42:55.878Z,101600.00
2023-03-16T15:45:23.511Z,101603.00
2023-03-16T15:47:53.768Z,101589.00
2023-03-16T15:50:24.606Z,101592.00
2023-03-16T15:52:59.954Z,101587.00
2023-03-16T15:55:47.226Z,101583.00
2023-03-16T15:58:24.393Z,101578.00
2023-03-16T16:00:57.200Z,101577.00
2023-03-16T16:03:25.953Z,101589.00
2023-03-16T16:05:53.364Z,101592.00
2023-03-16T16:08:21.439Z,101586.00
2023-03-16T16:10:50.637Z,101582.00
2023-03-16T16:13:43.790Z,101590.00
2023-03-16T16:16:17.801Z,101580.00
2023-03-16T16:18:46.704Z,101584.00
2023-03-16T16:21:23.046Z,101582.00
2023-03-16T16:23:52.211Z,101580.00
2023-03-16T16:26:50.892Z,101576.00
2023-03-16T16:29:32.445Z,101577.00
2023-03-16T16:32:00.070Z,101572.00
2023-03-16T16:34:27.960Z,101587.00
2023-03-16T16:36:56.395Z,101582.00
2023-03-16T16:39:23.914Z,101580.00
2023-03-16T16:41:54.667Z,101577.00
2023-03-16T16:44:27.233Z,101580.00
2023-03-16T16:46:54.865Z,101572.00
2023-03-16T16:49:28.481Z,101574.00
2023-03-16T16:51:55.389Z,101568.00
2023-03-16T16:54:26.143Z,101567.00
2023-03-16T16:56:56.229Z,101559.00
2023-03-16T16:59:33.322Z,101559.00
2023-03-16T17:02:22.896Z,101570.00
2023-03-16T17:04:50.876Z,101554.00
2023-03-16T17:07:18.032Z,101556.00
2023-03-16T17:09:45.111Z,101563.00
2023-03-16T17:12:23.515Z,101559.00
2023-03-16T17:14:51.242Z,101559.00
2023-03-16T17:17:18.733Z,101561.00
2023-03-16T17:19:47.079Z,101565.00
2023-03-16T17:22:26.474Z,101564.00
2023-03-16T17:24:55.169Z,101569.00
2023-03-16T17:27:31.482Z,101573.00
2023-03-16T17:29:58.834Z,101570.00
2023-03-16T17:32:26.024Z,101565.00
2023-03-16T17:34:54.402Z,101571.00
2023-03-16T17:37:23.362Z,101566.00
2023-03-16T17:39:51.232Z,101566.00
2023-03-16T17:42:20.339Z,101563.00
2023-03-16T17:44:52.894Z,101578.00
2023-03-16T17:47:24.420Z,101571.00
2023-03-16T17:49:52.298Z,101574.00
2023-03-16T17:52:25.797Z,101571.00
2023-03-16T17:54:54.223Z,101587.00
2023-03-16T17:57:32.469Z,101584.00
2023-03-16T18:00:08.887Z,101577.00
2023-03-16T18:02:51.463Z,101554.00
2023-03-16T18:05:34.773Z,101557.00
2023-03-16T18:08:20.541Z,101549.00
2023-03-16T18:10:52.314Z,101550.00
2023-03-16T18:13:35.115Z,101552.00
2023-03-16T18:16:03.232Z,101558.00
2023-03-16T18:18:35.675Z,101570.00
2023-03-16T18:21:03.369Z,101566.00
2023-03-16T18:23:34.601Z,101558.00
2023-03-16T18:26:06.341Z,101566.00
2023-03-16T18:28:34.940Z,101556.00
2023-03-16T18:31:05.027Z,101557.00
2023-03-16T18:33:40.990Z,101545.00
2023-03-16T18:36:17.657Z,101545.00
2023-03-16T18:38:49.253Z,101557.00
2023-03-16T18:41:23.210Z,101567.00
2023-03-16T18:43:51.925Z,101560.00
2023-03-16T18:46:33.230Z,101560.00
2023-03-16T18:49:26.986Z,101541.00
2023-03-16T18:51:54.842Z,101552.00
2023-03-16T18:54:27.704Z,101541.00
2023-03-16T18:56:54.932Z,101544.00
2023-03-16T18:59:21.950Z,101525.00
2023-03-16T19:01:48.761Z,101534.00
2023-03-16T19:04:35.887Z,101530.00
2023-03-16T19:07:28.610Z,101529.00
2023-03-16T19:09:55.560Z,101536.00
2023-03-16T19:12:22.986Z,101526.00
2023-03-16T19:14:49.870Z,101524.00
2023-03-16T19:17:16.658Z,101523.00
2023-03-16T19:19:43.417Z,101524.00
2023-03-16T19:22:21.230Z,101519.00
2023-03-16T19:24:54.001Z,101519.00
2023-03-16T19:27:25.597Z,101528.00
2023-03-16T19:29:54.598Z,101527.00
2023-03-16T19:32:22.302Z,101534.00
2023-03-16T19:34:49.519Z,101531.00
2023-03-16T19:37:19.163Z,101533.00
2023-03-16T19:39:46.393Z,101539.00
2023-03-16T19:42:26.177Z,101530.00
2023-03-16T19:44:52.958Z,101538.00
2023-03-16T19:47:31.161Z,101543.00
2023-03-16T19:49:59.125Z,101542.00
2023-03-16T19:52:30.724Z,101530.00
2023-03-16T19:54:57.502Z,101530.00
2023-03-16T19:57:24.480Z,101532.00
2023-03-16T19:59:56.881Z,101526.00
2023-03-16T20:02:40.387Z,101528.00
2023-03-16T20:05:12.189Z,101527.00
2023-03-16T20:07:38.998Z,101534.00
2023-03-16T20:10:06.894Z,101524.00
2023-03-16T20:12:36.982Z,101526.00
2023-03-16T20:15:04.154Z,101524.00
2023-03-16T20:17:32.855Z,101529.00
2023-03-16T20:19:59.693Z,101537.00
2023-03-16T20:22:28.602Z,101537.00
2023-03-16T20:24:57.958Z,101536.00
2023-03-16T20:27:26.884Z,101529.00
2023-03-16T20:29:53.684Z,101528.00
2023-03-16T20:32:25.214Z,101527.00
2023-03-16T20:34:53.611Z,101526.00
2023-03-16T20:37:30.008Z,101525.00
2023-03-16T20:39:59.091Z,101532.00
2023-03-16T20:42:34.665Z,101530.00
2023-03-16T20:45:02.680Z,101522.00
2023-03-16T20:47:29.412Z,101513.00
2023-03-16T20:50:00.238Z,101514.00
2023-03-16T20:52:30.830Z,101514.00
2023-03-16T20:54:58.177Z,101517.00
2023-03-16T20:57:27.418Z,101512.00
2023-03-16T20:59:55.364Z,101503.00
2023-03-16T21:02:29.658Z,101504.00
2023-03-16T21:04:58.498Z,101499.00
2023-03-16T21:07:25.408Z,101504.00
2023-03-16T21:09:52.674Z,101502.00
2023-03-16T21:12:35.642Z,101495.00
2023-03-16T21:15:16.088Z,101500.00
2023-03-16T21:17:43.082Z,101484.00
2023-03-16T21:20:20.245Z,101487.00
2023-03-16T21:22:47.103Z,101485.00
2023-03-16T21:25:26.592Z,101482.00
2023-03-16T21:27:55.486Z,101472.00
2023-03-16T21:30:31.812Z,101467.00
2023-03-16T21:33:01.829Z,101477.00
2023-03-16T21:35:34.562Z,101471.00
2023-03-16T21:38:11.707Z,101468.00
2023-03-16T21:40:38.714Z,101462.00
2023-03-16T21:43:06.175Z,101464.00
2023-03-16T21:45:33.369Z,101450.00
2023-03-16T21:48:00.229Z,101449.00
2023-03-16T21:50:33.336Z,101452.00
2023-03-16T21:53:00.151Z,101458.00
2023-03-16T21:55:29.963Z,101441.00
2023-03-16T21:57:58.668Z,101443.00
2023-03-16T22:00:34.344Z,101446.00
2023-03-16T22:03:01.551Z,101440.00
2023-03-16T22:05:40.958Z,101429.00
2023-03-16T22:08:20.288Z,101434.00
2023-03-16T22:10:47.552Z,101422.00
2023-03-16T22:13:14.439Z,101419.00
2023-03-16T22:15:43.560Z,101404.00
2023-03-16T22:18:36.884Z,101402.00
2023-03-16T22:21:32.639Z,101405.00
2023-03-16T22:24:01.596Z,101404.00
2023-03-16T22:26:29.609Z,101400.00
2023-03-16T22:28:57.271Z,101405.00
2023-03-16T22:31:34.591Z,101408.00
2023-03-16T22:34:03.943Z,101404.00
2023-03-16T22:36:32.820Z,101383.00
2023-03-16T22:39:08.690Z,101388.00
2023-03-16T22:41:35.537Z,101390.00
2023-03-16T22:44:02.359Z,101389.00
2023-03-16T22:46:29.872Z,101390.00
2023-03-16T22:48:57.824Z,101387.00
2023-03-16T22:51:36.350Z,101389.00
2023-03-16T22:54:08.876Z,101385.00
2023-03-16T22:56:36.074Z,101388.00
2023-03-16T22:59:07.577Z,101375.00
2023-03-16T23:01:39.492Z,101378.00
2023-03-16T23:04:19.897Z,101369.00
2023-03-16T23:06:50.363Z,101373.00
2023-03-16T23:09:20.403Z,101366.00
2023-03-16T23:11:53.604Z,101368.00
2023-03-16T23:14:24.641Z,101369.00
2023-03-16T23:16:52.604Z,101373.00
2023-03-16T23:19:32.737Z,101361.00
2023-03-16T23:22:06.218Z,101366.00
2023-03-16T23:24:35.060Z,101373.00
2023-03-16T23:27:03.727Z,101348.00
2023-03-16T23:29:31.759Z,101358.00
2023-03-16T23:31:59.093Z,101345.00
2023-03-16T23:34:26.414Z,101355.00
2023-03-16T23:36:53.157Z,101352.00
2023-03-16T23:39:19.928Z,101341.00
2023-03-16T23:41:49.921Z,101348.00
2023-03-16T23:44:25.518Z,101337.00
2023-03-16T23:46:53.217Z,101340.00
2023-03-16T23:49:30.548Z,101350.00
2023-03-16T23:51:59.822Z,101335.00
2023-03-16T23:54:30.728Z,101343.00
2023-03-16T23:56:57.929Z,101337.00
2023-03-16T23:59:27.362Z,101346.00
